首页
METAR-TAF:

METAR-TAF

机场 :

伊魁特機場

伊魁特, 努那武特, 加拿大

纬度: 63-45N, 经度: 068-33W, 海拔: 34米

当前天气观测

该预报发布于51分钟前的08:00 UTC
风速9节,风向西北
温度 -26°C
湿度 83%
气压 1014 hPa
能見度: 9.7公里
阴天层高于500英尺
小雪

METAR: CYFB 170800Z 32009KT 6SM -SN OVC005 M26/M28 A2993 RMK SC8 SLP141

时间: 03:51 (08:51 UTC)

预报

该预报发布于3小时和13分钟前的05:38 UTC
预报有效从17日的 06点(UTC)到 18日的 06点(UTC)
风速8节,风向西北
能見度: 9.7公里
阴天层高于500英尺
小雪
短暂存在
从 17日的 06点(UTC)到 17日的 11点(UTC)
能見度: 10公里
多云层高于800英尺
从 17日的 1100点(UTC)
风速8节,风向西北
能見度: 10公里
散云层高于800英尺
短暂存在
从 17日的 11点(UTC)到 17日的 16点(UTC)
能見度: 10公里
多云层高于800英尺
小雪
从 17日的 1600点(UTC)
风速8节,风向西北
能見度: 10公里
天空无云

TAF: CYFB 170538Z 1706/1806 32008KT 6SM -SN OVC005 TEMPO 1706/1711 P6SM NSW BKN008 FM171100 32008KT P6SM SCT008 TEMPO 1711/1716 P6SM -SN BKN008 FM171600 32008KT P6SM SKC RMK NXT FCST BY 171200Z

超过4000个机场的气象观测和天气预报(METAR&TAF报告)。

可查询的气象台以黄色和红色小点在地图上表示。

将鼠标移到小点上方,可查看气象台名称。

然后点击查看天气观测和预报。

如需切换地图:点击带黑十字的绿色按钮放大地图;点击带横线的绿色按钮缩小地图;或者点击绿色箭头查看邻近地区的地图。


METAR-TAF: